createdAt,value
2023-04-16T00:02:02.945Z,51.10
2023-04-16T00:04:29.998Z,51.10
2023-04-16T00:06:56.904Z,51.20
2023-04-16T00:09:23.837Z,51.10
2023-04-16T00:11:50.672Z,51.20
2023-04-16T00:14:17.524Z,51.30
2023-04-16T00:16:44.471Z,51.20
2023-04-16T00:19:11.664Z,51.20
2023-04-16T00:21:38.906Z,51.20
2023-04-16T00:24:05.839Z,51.50
2023-04-16T00:26:32.721Z,51.00
2023-04-16T00:29:01.041Z,51.20
2023-04-16T00:31:31.088Z,51.40
2023-04-16T00:33:58.971Z,51.50
2023-04-16T00:36:27.866Z,51.60
2023-04-16T00:38:56.248Z,51.70
2023-04-16T00:41:23.521Z,51.70
2023-04-16T00:43:50.872Z,51.80
2023-04-16T00:46:22.019Z,51.80
2023-04-16T00:48:51.029Z,52.00
2023-04-16T00:51:22.554Z,52.00
2023-04-16T00:53:50.522Z,52.00
2023-04-16T00:56:18.155Z,52.00
2023-04-16T00:58:44.982Z,52.10
2023-04-16T01:01:14.140Z,52.30
2023-04-16T01:03:47.950Z,51.70
2023-04-16T01:06:17.321Z,51.90
2023-04-16T01:08:45.125Z,51.90
2023-04-16T01:11:14.296Z,52.10
2023-04-16T01:13:41.651Z,52.10
2023-04-16T01:16:11.178Z,52.20
2023-04-16T01:18:39.133Z,52.30
2023-04-16T01:21:06.657Z,52.30
2023-04-16T01:23:33.651Z,52.30
2023-04-16T01:26:00.586Z,52.40
2023-04-16T01:28:27.505Z,52.40
2023-04-16T01:30:54.447Z,52.50
2023-04-16T01:33:21.814Z,52.50
2023-04-16T01:35:48.704Z,52.60
2023-04-16T01:38:15.741Z,52.60
2023-04-16T01:40:42.556Z,52.60
2023-04-16T01:43:09.408Z,52.80
2023-04-16T01:45:36.399Z,52.80
2023-04-16T01:48:04.332Z,52.70
2023-04-16T01:50:31.995Z,52.80
2023-04-16T01:52:58.790Z,52.80
2023-04-16T01:55:25.712Z,53.10
2023-04-16T01:57:52.614Z,52.60
2023-04-16T02:00:19.538Z,52.70
2023-04-16T02:02:47.387Z,52.80
2023-04-16T02:05:14.434Z,52.90
2023-04-16T02:07:41.467Z,53.00
2023-04-16T02:10:10.321Z,53.10
2023-04-16T02:12:37.334Z,53.20
2023-04-16T02:15:04.998Z,53.20
2023-04-16T02:17:31.929Z,53.30
2023-04-16T02:19:58.873Z,53.20
2023-04-16T02:22:25.875Z,53.30
2023-04-16T02:24:52.678Z,53.30
2023-04-16T02:27:19.464Z,53.30
2023-04-16T02:29:46.311Z,53.30
2023-04-16T02:32:13.467Z,53.40
2023-04-16T02:34:40.395Z,53.50
2023-04-16T02:37:07.212Z,53.60
2023-04-16T02:39:34.179Z,53.60
2023-04-16T02:42:02.640Z,53.60
2023-04-16T02:44:29.574Z,53.70
2023-04-16T02:46:56.344Z,53.70
2023-04-16T02:49:23.194Z,53.90
2023-04-16T02:51:50.348Z,53.80
2023-04-16T02:54:17.134Z,53.80
2023-04-16T02:56:44.046Z,53.90
2023-04-16T02:59:11.161Z,54.00
2023-04-16T03:01:38.334Z,54.10
2023-04-16T03:04:05.610Z,54.10
2023-04-16T03:06:32.717Z,54.20
2023-04-16T03:08:59.558Z,54.20
2023-04-16T03:11:26.367Z,54.10
2023-04-16T03:13:53.922Z,54.10
2023-04-16T03:16:20.765Z,54.20
2023-04-16T03:18:47.615Z,54.20
2023-04-16T03:21:14.420Z,54.10
2023-04-16T03:23:41.262Z,54.20
2023-04-16T03:26:08.146Z,54.30
2023-04-16T03:28:35.065Z,54.30
2023-04-16T03:31:01.849Z,54.40
2023-04-16T03:33:28.867Z,54.40
2023-04-16T03:35:57.563Z,54.40
2023-04-16T03:38:28.783Z,54.40
2023-04-16T03:40:55.859Z,54.50
2023-04-16T03:43:22.841Z,54.40
2023-04-16T03:45:49.786Z,54.50
2023-04-16T03:48:16.742Z,54.50
2023-04-16T03:50:49.918Z,54.60
2023-04-16T03:53:16.901Z,54.90
2023-04-16T03:55:45.644Z,54.60
2023-04-16T03:58:12.318Z,54.80
2023-04-16T04:00:43.263Z,55.00
2023-04-16T04:03:17.129Z,54.90
2023-04-16T04:05:44.279Z,55.00
2023-04-16T04:08:11.529Z,54.80
2023-04-16T04:10:38.421Z,54.90
2023-04-16T04:13:06.709Z,54.90
2023-04-16T04:15:33.565Z,55.00
2023-04-16T04:18:00.595Z,55.00
2023-04-16T04:20:27.515Z,55.00
2023-04-16T04:22:54.288Z,55.10
2023-04-16T04:25:21.242Z,55.60
2023-04-16T04:27:48.093Z,55.10
2023-04-16T04:30:15.122Z,55.10
2023-04-16T04:32:41.916Z,55.20
2023-04-16T04:35:09.456Z,55.20
2023-04-16T04:37:36.247Z,55.30
2023-04-16T04:40:03.580Z,55.30
2023-04-16T04:42:30.456Z,55.30
2023-04-16T04:44:57.347Z,55.30
2023-04-16T04:47:24.187Z,55.40
2023-04-16T04:49:51.217Z,55.40
2023-04-16T04:52:18.030Z,55.50
2023-04-16T04:54:44.808Z,55.40
2023-04-16T04:57:11.653Z,55.50
2023-04-16T04:59:38.507Z,55.50
2023-04-16T05:02:05.643Z,55.50
2023-04-16T05:04:32.679Z,55.60
2023-04-16T05:06:59.633Z,55.70
2023-04-16T05:09:26.608Z,55.70
2023-04-16T05:11:53.982Z,55.70
2023-04-16T05:14:21.028Z,55.70
2023-04-16T05:16:47.821Z,55.70
2023-04-16T05:19:14.710Z,55.80
2023-04-16T05:21:41.504Z,55.80
2023-04-16T05:24:08.417Z,55.80
2023-04-16T05:26:35.617Z,55.80
2023-04-16T05:29:02.494Z,55.80
2023-04-16T05:31:29.336Z,55.90
2023-04-16T05:33:56.183Z,55.80
2023-04-16T05:36:23.283Z,55.80
2023-04-16T05:38:50.130Z,55.60
2023-04-16T05:41:16.981Z,55.70
2023-04-16T05:43:43.791Z,55.80
2023-04-16T05:46:10.959Z,55.80
2023-04-16T05:48:37.732Z,55.90
2023-04-16T05:51:04.892Z,55.90
2023-04-16T05:53:31.791Z,55.90
2023-04-16T05:55:58.612Z,55.90
2023-04-16T05:58:25.425Z,56.00
2023-04-16T06:00:52.308Z,55.70
2023-04-16T06:03:19.191Z,55.90
2023-04-16T06:05:46.100Z,55.90
2023-04-16T06:08:13.233Z,55.90
2023-04-16T06:10:40.343Z,55.80
2023-04-16T06:13:07.171Z,56.00
2023-04-16T06:15:33.955Z,56.00
2023-04-16T06:18:01.191Z,55.80
2023-04-16T06:20:28.204Z,55.80
2023-04-16T06:22:56.214Z,55.80
2023-04-16T06:25:23.528Z,55.80
2023-04-16T06:27:50.351Z,56.00
2023-04-16T06:30:17.532Z,56.00
2023-04-16T06:32:44.578Z,56.10
2023-04-16T06:35:11.607Z,56.10
2023-04-16T06:37:38.841Z,56.10
2023-04-16T06:40:06.488Z,56.20
2023-04-16T06:42:33.250Z,56.30
2023-04-16T06:45:00.279Z,56.80
2023-04-16T06:47:27.460Z,56.20
2023-04-16T06:49:54.370Z,56.20
2023-04-16T06:52:21.294Z,56.40
2023-04-16T06:54:48.645Z,56.50
2023-04-16T06:57:16.274Z,56.60
2023-04-16T06:59:43.028Z,56.80
2023-04-16T07:02:10.829Z,56.60
2023-04-16T07:04:37.848Z,56.50
2023-04-16T07:07:04.687Z,56.60
2023-04-16T07:09:31.513Z,56.70
2023-04-16T07:11:58.413Z,56.80
2023-04-16T07:14:25.350Z,56.80
2023-04-16T07:16:52.240Z,56.80
2023-04-16T07:19:19.115Z,56.70
2023-04-16T07:21:48.809Z,56.90
2023-04-16T07:27:38.092Z,57.10
2023-04-16T07:30:20.681Z,57.00
2023-04-16T07:32:47.645Z,57.40
2023-04-16T07:35:14.573Z,57.20
2023-04-16T07:37:41.376Z,57.00
2023-04-16T07:40:09.114Z,57.10
2023-04-16T07:42:36.222Z,57.30
2023-04-16T07:45:03.125Z,57.40
2023-04-16T07:47:30.013Z,57.40
2023-04-16T07:49:56.808Z,57.40
2023-04-16T07:52:23.663Z,57.40
2023-04-16T07:54:51.712Z,57.50
2023-04-16T07:57:18.614Z,57.50
2023-04-16T07:59:45.421Z,57.60
2023-04-16T08:02:16.669Z,57.60
2023-04-16T08:04:44.256Z,57.70
2023-04-16T08:07:11.488Z,57.80
2023-04-16T08:09:56.772Z,57.80
2023-04-16T08:12:24.137Z,58.30
2023-04-16T08:14:51.036Z,57.90
2023-04-16T08:17:18.002Z,58.00
2023-04-16T08:19:45.264Z,57.70
2023-04-16T08:22:15.342Z,57.80
2023-04-16T08:24:42.347Z,58.70
2023-04-16T08:27:18.614Z,57.90
2023-04-16T08:29:48.533Z,57.80
2023-04-16T08:32:15.678Z,58.00
2023-04-16T08:34:43.232Z,58.20
2023-04-16T08:37:10.624Z,58.20
2023-04-16T08:39:37.760Z,58.20
2023-04-16T08:42:09.010Z,58.30
2023-04-16T08:44:44.016Z,58.40
2023-04-16T08:47:13.581Z,58.50
2023-04-16T08:49:48.130Z,58.30
2023-04-16T08:52:19.910Z,58.50
2023-04-16T08:55:21.752Z,58.40
2023-04-16T08:57:54.733Z,58.80
2023-04-16T09:00:21.863Z,58.60
2023-04-16T09:02:50.533Z,58.50
2023-04-16T09:05:19.282Z,58.40
2023-04-16T09:07:48.082Z,58.40
2023-04-16T09:10:16.545Z,58.50
2023-04-16T09:12:44.240Z,58.90
2023-04-16T09:15:12.353Z,58.40
2023-04-16T09:17:40.348Z,58.70
2023-04-16T09:20:09.490Z,58.20
2023-04-16T09:22:37.015Z,58.30
2023-04-16T09:25:04.466Z,58.80
2023-04-16T09:27:32.028Z,58.30
2023-04-16T09:29:59.124Z,58.30
2023-04-16T09:32:28.721Z,58.80
2023-04-16T09:35:01.773Z,58.20
2023-04-16T09:37:30.904Z,58.50
2023-04-16T09:40:03.998Z,58.30
2023-04-16T09:42:39.449Z,58.50
2023-04-16T09:45:07.117Z,58.50
2023-04-16T09:47:41.378Z,58.50
2023-04-16T09:50:12.437Z,58.70
2023-04-16T09:52:39.911Z,58.50
2023-04-16T09:55:07.349Z,58.60
2023-04-16T09:57:38.550Z,58.70
2023-04-16T10:00:09.039Z,58.80
2023-04-16T10:02:40.678Z,58.50
2023-04-16T10:05:08.279Z,58.90
2023-04-16T10:07:36.765Z,58.60
2023-04-16T10:10:05.034Z,58.70
2023-04-16T10:12:33.046Z,58.80
2023-04-16T10:15:00.068Z,59.00
2023-04-16T10:20:17.835Z,59.40
2023-04-16T10:22:45.284Z,59.30
2023-04-16T10:25:13.060Z,59.30
2023-04-16T10:27:41.311Z,59.10
2023-04-16T10:30:10.398Z,59.00
2023-04-16T10:32:38.605Z,59.10
2023-04-16T10:35:06.336Z,59.20
2023-04-16T10:37:33.413Z,59.20
2023-04-16T10:40:00.434Z,59.50
2023-04-16T10:42:27.597Z,58.80
2023-04-16T10:44:54.643Z,59.30
2023-04-16T10:47:26.115Z,58.90
2023-04-16T10:49:53.200Z,59.50
2023-04-16T10:52:22.335Z,59.10
2023-04-16T10:54:50.580Z,59.20
2023-04-16T10:57:20.593Z,59.20
2023-04-16T10:59:49.194Z,59.50
2023-04-16T11:02:19.224Z,59.40
2023-04-16T11:04:49.009Z,59.30
2023-04-16T11:07:20.429Z,59.20
2023-04-16T11:10:02.127Z,59.10
2023-04-16T11:12:47.517Z,59.40
2023-04-16T11:15:17.247Z,59.80
2023-04-16T11:17:45.395Z,59.30
2023-04-16T11:20:23.278Z,59.10
2023-04-16T11:22:52.824Z,59.20
2023-04-16T11:28:06.163Z,59.10
2023-04-16T11:30:39.551Z,59.00
2023-04-16T11:33:11.622Z,59.20
2023-04-16T11:35:40.014Z,58.90
2023-04-16T11:38:07.556Z,58.80
2023-04-16T11:40:35.080Z,58.80
2023-04-16T11:43:16.700Z,59.30
2023-04-16T11:46:10.267Z,59.30
2023-04-16T11:48:55.414Z,59.10
2023-04-16T11:51:23.327Z,58.90
2023-04-16T11:53:53.241Z,58.70
2023-04-16T11:56:29.290Z,58.80
2023-04-16T11:59:19.536Z,58.70
2023-04-16T12:01:52.645Z,58.80
2023-04-16T12:04:22.686Z,58.60
2023-04-16T12:07:09.455Z,58.50
2023-04-16T12:09:40.411Z,59.00
2023-04-16T12:12:31.454Z,58.40
2023-04-16T12:15:03.227Z,58.70
2023-04-16T12:17:35.372Z,58.40
2023-04-16T12:20:15.702Z,58.50
2023-04-16T12:22:49.244Z,58.70
2023-04-16T12:26:13.275Z,58.60
2023-04-16T12:28:40.802Z,58.40
2023-04-16T12:31:08.566Z,58.30
2023-04-16T12:33:35.544Z,58.40
2023-04-16T12:36:18.639Z,58.50
2023-04-16T12:38:45.671Z,58.80
2023-04-16T12:41:12.559Z,58.60
2023-04-16T12:43:39.402Z,58.60
2023-04-16T12:46:06.735Z,58.60
2023-04-16T12:48:33.867Z,58.40
2023-04-16T12:51:01.002Z,58.40
2023-04-16T12:53:27.878Z,58.30
2023-04-16T12:55:55.289Z,58.30
2023-04-16T12:58:22.130Z,58.40
2023-04-16T13:00:49.140Z,58.30
2023-04-16T13:03:16.344Z,58.20
2023-04-16T13:05:43.276Z,58.20
2023-04-16T13:08:10.183Z,58.70
2023-04-16T13:10:37.235Z,58.20
2023-04-16T13:13:04.137Z,58.10
2023-04-16T13:15:30.967Z,57.90
2023-04-16T13:17:58.001Z,57.90
2023-04-16T13:20:24.843Z,57.90
2023-04-16T13:22:51.790Z,57.90
2023-04-16T13:25:18.868Z,57.80
2023-04-16T13:27:45.718Z,57.70
2023-04-16T13:30:13.071Z,57.80
2023-04-16T13:32:40.816Z,57.70
2023-04-16T13:35:08.281Z,57.70
2023-04-16T13:37:35.514Z,57.80
2023-04-16T13:40:02.391Z,57.90
2023-04-16T13:42:29.306Z,57.90
2023-04-16T13:44:58.266Z,57.90
2023-04-16T13:47:25.486Z,58.00
2023-04-16T13:49:52.313Z,58.00
2023-04-16T13:52:19.241Z,58.00
2023-04-16T13:54:46.046Z,57.90
2023-04-16T13:57:12.964Z,58.00
2023-04-16T13:59:39.865Z,58.00
2023-04-16T14:02:06.788Z,58.10
2023-04-16T14:04:33.640Z,58.30
2023-04-16T14:07:00.450Z,58.30
2023-04-16T14:09:27.334Z,58.30
2023-04-16T14:11:55.304Z,58.40
2023-04-16T14:14:22.188Z,58.40
2023-04-16T14:16:49.133Z,58.50
2023-04-16T14:19:16.017Z,58.60
2023-04-16T14:21:44.346Z,58.60
2023-04-16T14:24:11.350Z,58.70
2023-04-16T14:26:38.214Z,58.80
2023-04-16T14:29:06.459Z,59.30
2023-04-16T14:31:33.534Z,58.80
2023-04-16T14:34:00.785Z,58.90
2023-04-16T14:36:32.359Z,58.90
2023-04-16T14:38:59.275Z,58.90
2023-04-16T14:41:26.364Z,58.80
2023-04-16T14:43:53.260Z,58.80
2023-04-16T14:46:20.104Z,58.80
2023-04-16T14:48:46.955Z,58.80
2023-04-16T14:51:13.910Z,58.80
2023-04-16T14:53:43.213Z,58.90
2023-04-16T14:56:11.250Z,59.00
2023-04-16T14:58:39.390Z,59.00
2023-04-16T15:01:06.399Z,59.00
2023-04-16T15:03:33.467Z,59.00
2023-04-16T15:06:00.575Z,59.00
2023-04-16T15:08:27.655Z,59.00
2023-04-16T15:10:54.618Z,58.90
2023-04-16T15:13:21.522Z,58.90
2023-04-16T15:15:48.494Z,58.90
2023-04-16T15:18:16.414Z,58.90
2023-04-16T15:20:54.457Z,58.90
2023-04-16T15:23:26.191Z,59.10
2023-04-16T15:25:55.347Z,58.90
2023-04-16T15:28:22.147Z,59.50
2023-04-16T15:30:49.175Z,58.90
2023-04-16T15:33:16.354Z,59.50
2023-04-16T15:35:43.305Z,59.00
2023-04-16T15:38:10.273Z,59.00
2023-04-16T15:40:37.220Z,58.90
2023-04-16T15:43:06.051Z,59.00
2023-04-16T15:45:32.990Z,59.00
2023-04-16T15:47:59.862Z,59.10
2023-04-16T15:50:27.054Z,59.10
2023-04-16T15:52:53.947Z,59.00
2023-04-16T15:55:21.059Z,59.00
2023-04-16T15:57:48.011Z,59.00
2023-04-16T16:00:17.095Z,58.90
2023-04-16T16:02:46.882Z,58.90
2023-04-16T16:05:15.894Z,58.90
2023-04-16T16:07:44.055Z,58.90
2023-04-16T16:10:12.953Z,58.90
2023-04-16T16:12:41.175Z,59.00
2023-04-16T16:15:08.999Z,58.90
2023-04-16T16:17:36.108Z,58.80
2023-04-16T16:20:04.162Z,58.90
2023-04-16T16:22:30.963Z,58.90
2023-04-16T16:24:58.737Z,59.00
2023-04-16T16:27:25.940Z,59.00
2023-04-16T16:29:52.780Z,59.00
2023-04-16T16:32:19.659Z,59.00
2023-04-16T16:34:46.503Z,59.00
2023-04-16T16:37:13.281Z,59.00
2023-04-16T16:39:40.384Z,59.10
2023-04-16T16:42:09.114Z,59.00
2023-04-16T16:44:36.605Z,59.00
2023-04-16T16:47:03.637Z,59.00
2023-04-16T16:49:30.609Z,59.10
2023-04-16T16:51:57.886Z,59.10
2023-04-16T16:54:24.853Z,59.10
2023-04-16T16:56:52.716Z,59.10
2023-04-16T16:59:19.718Z,59.20
2023-04-16T17:01:46.642Z,59.20
2023-04-16T17:04:13.613Z,59.20
2023-04-16T17:06:40.656Z,59.50
2023-04-16T17:09:07.957Z,59.50
2023-04-16T17:11:34.804Z,59.60
2023-04-16T17:14:01.677Z,59.60
2023-04-16T17:16:28.746Z,59.60
2023-04-16T17:18:56.340Z,59.80
2023-04-16T17:21:23.223Z,59.90
2023-04-16T17:23:50.064Z,59.90
2023-04-16T17:26:17.054Z,60.00
2023-04-16T17:28:44.004Z,60.10
2023-04-16T17:31:11.698Z,60.10
2023-04-16T17:33:38.575Z,60.20
2023-04-16T17:36:06.221Z,60.80
2023-04-16T17:38:33.813Z,60.40
2023-04-16T17:41:00.717Z,60.50
2023-04-16T17:43:28.342Z,60.60
2023-04-16T17:45:55.278Z,60.30
2023-04-16T17:48:22.141Z,60.50
2023-04-16T17:50:49.841Z,60.20
2023-04-16T17:53:16.695Z,60.40
2023-04-16T17:55:55.357Z,60.50
2023-04-16T17:58:23.822Z,61.00
2023-04-16T18:00:50.638Z,60.50
2023-04-16T18:03:28.906Z,60.60
2023-04-16T18:05:56.224Z,61.00
2023-04-16T18:08:24.879Z,60.70
2023-04-16T18:10:52.262Z,60.80
2023-04-16T18:13:19.418Z,60.70
2023-04-16T18:15:46.512Z,60.70
2023-04-16T18:18:13.838Z,60.90
2023-04-16T18:20:41.194Z,61.00
2023-04-16T18:23:08.145Z,61.00
2023-04-16T18:25:35.465Z,60.90
2023-04-16T18:28:03.889Z,61.00
2023-04-16T18:30:31.064Z,61.00
2023-04-16T18:35:28.304Z,61.10
2023-04-16T18:37:55.139Z,61.00
2023-04-16T18:40:21.931Z,61.10
2023-04-16T18:42:48.761Z,61.10
2023-04-16T18:45:21.142Z,61.20
2023-04-16T18:47:50.270Z,61.20
2023-04-16T18:50:17.424Z,61.20
2023-04-16T18:52:44.472Z,61.30
2023-04-16T18:55:11.260Z,61.30
2023-04-16T18:57:38.081Z,61.30
2023-04-16T19:00:12.391Z,61.40
2023-04-16T19:02:40.172Z,61.40
2023-04-16T19:05:08.518Z,61.30
2023-04-16T19:07:36.034Z,61.40
2023-04-16T19:10:03.334Z,61.50
2023-04-16T19:12:31.022Z,61.60
2023-04-16T19:14:57.862Z,61.50
2023-04-16T19:17:24.810Z,61.70
2023-04-16T19:19:51.661Z,61.40
2023-04-16T19:22:18.708Z,61.50
2023-04-16T19:24:45.693Z,61.50
2023-04-16T19:27:12.513Z,61.50
2023-04-16T19:29:40.806Z,61.60
2023-04-16T19:32:07.665Z,61.70
2023-04-16T19:34:34.580Z,61.80
2023-04-16T19:37:01.732Z,61.80
2023-04-16T19:39:28.539Z,61.90
2023-04-16T19:41:55.996Z,61.90
2023-04-16T19:44:23.289Z,61.90
2023-04-16T19:46:50.189Z,61.90
2023-04-16T19:49:17.049Z,61.80
2023-04-16T19:51:44.035Z,61.80
2023-04-16T19:54:10.887Z,61.90
2023-04-16T19:56:37.776Z,61.90
2023-04-16T19:59:04.668Z,61.90
2023-04-16T20:01:31.591Z,61.90
2023-04-16T20:03:58.652Z,61.90
2023-04-16T20:06:26.266Z,62.00
2023-04-16T20:08:53.477Z,61.90
2023-04-16T20:11:20.427Z,62.00
2023-04-16T20:13:48.049Z,62.10
2023-04-16T20:16:15.050Z,62.10
2023-04-16T20:18:42.550Z,62.30
2023-04-16T20:21:10.401Z,61.80
2023-04-16T20:23:37.332Z,62.00
2023-04-16T20:26:04.502Z,62.00
2023-04-16T20:28:31.442Z,62.10
2023-04-16T20:30:58.568Z,62.10
2023-04-16T20:33:25.540Z,62.20
2023-04-16T20:35:52.443Z,62.20
2023-04-16T20:38:23.646Z,62.30
2023-04-16T20:41:06.300Z,62.30
2023-04-16T20:43:38.576Z,62.40
2023-04-16T20:46:05.965Z,62.40
2023-04-16T20:48:33.116Z,62.40
2023-04-16T20:51:05.100Z,62.40
2023-04-16T20:53:33.374Z,62.70
2023-04-16T20:56:00.586Z,62.50
2023-04-16T20:58:27.485Z,62.50
2023-04-16T21:00:56.464Z,62.50
2023-04-16T21:03:24.595Z,62.60
2023-04-16T21:05:54.316Z,62.60
2023-04-16T21:08:22.763Z,62.70
2023-04-16T21:10:50.677Z,62.70
2023-04-16T21:13:18.578Z,62.60
2023-04-16T21:15:46.071Z,62.70
2023-04-16T21:18:13.440Z,62.60
2023-04-16T21:20:40.600Z,62.70
2023-04-16T21:23:07.720Z,62.60
2023-04-16T21:25:34.601Z,62.70
2023-04-16T21:28:01.416Z,62.70
2023-04-16T21:30:28.280Z,62.70
2023-04-16T21:32:55.168Z,63.30
2023-04-16T21:35:21.979Z,62.70
2023-04-16T21:37:48.871Z,62.70
2023-04-16T21:40:15.995Z,62.80
2023-04-16T21:42:42.923Z,62.70
2023-04-16T21:45:10.636Z,62.80
2023-04-16T21:47:37.910Z,62.90
2023-04-16T21:50:05.777Z,63.10
2023-04-16T21:52:33.014Z,62.60
2023-04-16T21:55:00.606Z,62.70
2023-04-16T21:57:27.517Z,62.90
2023-04-16T21:59:54.387Z,63.00
2023-04-16T22:02:21.302Z,63.00
2023-04-16T22:04:48.718Z,63.10
2023-04-16T22:07:16.808Z,63.10
2023-04-16T22:09:43.939Z,63.10
2023-04-16T22:12:10.865Z,63.20
2023-04-16T22:14:44.080Z,63.20
2023-04-16T22:17:17.134Z,63.20
2023-04-16T22:19:44.582Z,63.20
2023-04-16T22:22:11.399Z,63.30
2023-04-16T22:24:38.224Z,63.30
2023-04-16T22:27:05.128Z,63.30
2023-04-16T22:29:32.109Z,63.30
2023-04-16T22:32:00.692Z,63.30
2023-04-16T22:34:27.659Z,63.40
2023-04-16T22:36:54.461Z,63.40
2023-04-16T22:39:21.481Z,63.40
2023-04-16T22:41:48.474Z,63.40
2023-04-16T22:44:15.693Z,63.40
2023-04-16T22:46:43.830Z,63.50
2023-04-16T22:49:10.751Z,63.50
2023-04-16T22:51:38.142Z,63.50
2023-04-16T22:54:05.349Z,63.60
2023-04-16T22:56:32.228Z,63.50
2023-04-16T22:58:59.097Z,63.50
2023-04-16T23:01:26.176Z,63.50
2023-04-16T23:03:53.133Z,63.60
2023-04-16T23:06:20.041Z,63.70
2023-04-16T23:08:46.990Z,63.60
2023-04-16T23:11:13.777Z,63.70
2023-04-16T23:13:40.771Z,63.80
2023-04-16T23:16:08.182Z,63.80
2023-04-16T23:18:35.145Z,63.70
2023-04-16T23:21:02.151Z,63.80
2023-04-16T23:23:29.020Z,63.80
2023-04-16T23:25:56.031Z,63.80
2023-04-16T23:28:22.937Z,63.80
2023-04-16T23:30:53.104Z,63.90
2023-04-16T23:33:20.178Z,64.00
2023-04-16T23:35:47.826Z,63.90
2023-04-16T23:38:14.528Z,63.90
2023-04-16T23:40:41.356Z,64.10
2023-04-16T23:43:08.237Z,63.70
2023-04-16T23:45:35.172Z,63.80
2023-04-16T23:48:02.183Z,63.80
2023-04-16T23:50:29.036Z,63.90
2023-04-16T23:52:55.983Z,63.90
2023-04-16T23:55:23.039Z,63.90
2023-04-16T23:57:49.933Z,64.00
